createdAt,value
2022-09-13T00:01:52.160Z,100783.50
2022-09-13T00:04:19.792Z,100780.34
2022-09-13T00:06:47.040Z,100778.81
2022-09-13T00:09:15.464Z,100783.56
2022-09-13T00:11:42.727Z,100774.84
2022-09-13T00:14:10.462Z,100775.22
2022-09-13T00:16:37.916Z,100774.03
2022-09-13T00:19:05.278Z,100772.06
2022-09-13T00:21:32.552Z,100757.41
2022-09-13T00:23:59.871Z,100766.91
2022-09-13T00:26:28.479Z,100761.75
2022-09-13T00:28:58.081Z,100764.94
2022-09-13T00:31:28.226Z,100765.31
2022-09-13T00:33:58.521Z,100763.75
2022-09-13T00:36:25.770Z,100763.75
2022-09-13T00:38:53.085Z,100761.78
2022-09-13T00:41:21.472Z,100757.81
2022-09-13T00:43:51.630Z,100766.94
2022-09-13T00:46:33.802Z,100764.16
2022-09-13T00:49:16.492Z,100764.13
2022-09-13T00:51:45.755Z,100765.75
2022-09-13T00:54:16.017Z,100762.97
2022-09-13T00:56:48.106Z,100760.56
2022-09-13T00:59:25.217Z,100761.78
2022-09-13T01:01:56.491Z,100762.16
2022-09-13T01:04:27.890Z,100764.53
2022-09-13T01:06:59.591Z,100764.09
2022-09-13T01:09:30.616Z,100770.41
2022-09-13T01:12:14.658Z,100767.25
2022-09-13T01:14:42.231Z,100757.34
2022-09-13T01:17:09.815Z,100755.38
2022-09-13T01:19:37.223Z,100761.72
2022-09-13T01:22:42.715Z,100756.97
2022-09-13T01:25:48.520Z,100751.03
2022-09-13T01:28:24.535Z,100755.31
2022-09-13T01:31:10.527Z,100760.41
2022-09-13T01:34:15.125Z,100755.66
2022-09-13T01:36:59.200Z,100751.78
2022-09-13T01:40:00.587Z,100753.72
2022-09-13T01:42:40.042Z,100747.72
2022-09-13T01:45:31.728Z,100754.44
2022-09-13T01:48:13.884Z,100743.38
2022-09-13T01:50:47.606Z,100749.69
2022-09-13T01:53:37.956Z,100755.25
2022-09-13T01:56:05.227Z,100746.59
2022-09-13T01:58:48.699Z,100752.09
2022-09-13T02:01:24.258Z,100749.28
2022-09-13T02:04:15.259Z,100757.94
2022-09-13T02:07:05.322Z,100752.13
2022-09-13T02:09:43.383Z,100760.41
2022-09-13T02:12:19.594Z,100751.31
2022-09-13T02:14:58.375Z,100751.31
2022-09-13T02:17:32.464Z,100744.97
2022-09-13T02:20:03.650Z,100747.34
2022-09-13T02:22:34.700Z,100735.06
2022-09-13T02:25:09.011Z,100735.84
2022-09-13T02:27:38.739Z,100731.13
2022-09-13T02:30:10.287Z,100734.63
2022-09-13T02:32:42.406Z,100730.31
2022-09-13T02:35:16.810Z,100729.94
2022-09-13T02:37:48.548Z,100721.66
2022-09-13T02:40:22.695Z,100725.94
2022-09-13T02:42:56.053Z,100716.78
2022-09-13T02:45:31.974Z,100721.53
2022-09-13T02:48:12.467Z,100719.88
2022-09-13T02:51:07.450Z,100724.63
2022-09-13T02:53:43.190Z,100719.81
2022-09-13T02:56:34.536Z,100713.09
2022-09-13T02:59:16.849Z,100711.13
2022-09-13T03:01:50.704Z,100713.13
2022-09-13T03:04:18.526Z,100700.50
2022-09-13T03:06:45.787Z,100703.25
2022-09-13T03:09:14.025Z,100697.81
2022-09-13T03:12:04.543Z,100689.44
2022-09-13T03:14:31.805Z,100699.34
2022-09-13T03:17:25.018Z,100690.19
2022-09-13T03:20:08.326Z,100693.31
2022-09-13T03:23:09.765Z,100686.19
2022-09-13T03:26:26.687Z,100692.91
2022-09-13T03:29:12.755Z,100690.16
2022-09-13T03:31:56.636Z,100682.66
2022-09-13T03:34:52.095Z,100679.44
2022-09-13T03:37:31.559Z,100678.69
2022-09-13T03:40:15.601Z,100678.63
2022-09-13T03:42:50.020Z,100683.03
2022-09-13T03:45:21.558Z,100675.06
2022-09-13T03:47:51.275Z,100693.97
2022-09-13T03:50:22.329Z,100682.91
2022-09-13T03:53:00.545Z,100682.56
2022-09-13T03:55:30.119Z,100679.72
2022-09-13T03:57:57.416Z,100673.41
2022-09-13T04:00:24.881Z,100681.25
2022-09-13T04:02:52.098Z,100678.03
2022-09-13T04:05:19.320Z,100678.31
2022-09-13T04:07:46.695Z,100686.59
2022-09-13T04:10:14.259Z,100683.84
2022-09-13T04:12:41.528Z,100681.09
2022-09-13T04:15:09.990Z,100685.03
2022-09-13T04:17:37.191Z,100691.75
2022-09-13T04:20:07.646Z,100698.06
2022-09-13T04:22:35.090Z,100692.13
2022-09-13T04:25:02.888Z,100685.78
2022-09-13T04:27:30.443Z,100686.94
2022-09-13T04:29:57.868Z,100685.75
2022-09-13T04:32:25.157Z,100685.31
2022-09-13T04:34:52.515Z,100692.75
2022-09-13T04:37:20.951Z,100696.72
2022-09-13T04:39:48.311Z,100695.53
2022-09-13T04:42:15.751Z,100682.56
2022-09-13T04:44:44.822Z,100693.25
2022-09-13T04:47:12.110Z,100697.53
2022-09-13T04:49:40.038Z,100697.94
2022-09-13T04:52:07.348Z,100691.19
2022-09-13T04:54:38.014Z,100692.81
2022-09-13T04:57:06.366Z,100700.34
2022-09-13T04:59:34.509Z,100699.16
2022-09-13T05:02:04.906Z,100686.97
2022-09-13T05:04:32.328Z,100692.06
2022-09-13T05:06:59.611Z,100695.66
2022-09-13T05:09:27.378Z,100694.03
2022-09-13T05:11:57.436Z,100691.50
2022-09-13T05:14:24.679Z,100696.28
2022-09-13T05:16:52.008Z,100696.13
2022-09-13T05:19:19.315Z,100700.50
2022-09-13T05:21:46.658Z,100699.91
2022-09-13T05:24:13.885Z,100702.00
2022-09-13T05:26:41.284Z,100693.31
2022-09-13T05:29:08.635Z,100705.25
2022-09-13T05:31:39.806Z,100708.09
2022-09-13T05:34:10.754Z,100715.69
2022-09-13T05:36:39.046Z,100711.00
2022-09-13T05:41:55.115Z,100719.72
2022-09-13T05:44:22.899Z,100717.03
2022-09-13T05:46:50.272Z,100718.69
2022-09-13T05:49:17.575Z,100711.72
2022-09-13T05:51:45.452Z,100710.22
2022-09-13T05:54:13.145Z,100697.63
2022-09-13T05:56:40.439Z,100704.81
2022-09-13T05:59:09.002Z,100706.69
2022-09-13T06:01:36.733Z,100704.41
2022-09-13T06:04:04.021Z,100693.03
2022-09-13T06:06:31.341Z,100697.28
2022-09-13T06:08:58.722Z,100694.81
2022-09-13T06:11:26.653Z,100697.28
2022-09-13T06:13:54.271Z,100700.81
2022-09-13T06:16:21.958Z,100707.59
2022-09-13T06:18:50.148Z,100705.75
2022-09-13T06:21:20.593Z,100703.50
2022-09-13T06:23:51.156Z,100698.16
2022-09-13T06:26:24.813Z,100703.19
2022-09-13T06:28:54.506Z,100699.59
2022-09-13T06:31:24.814Z,100700.84
2022-09-13T06:34:04.787Z,100704.31
2022-09-13T06:36:32.027Z,100706.16
2022-09-13T06:39:00.692Z,100706.63
2022-09-13T06:41:28.328Z,100703.47
2022-09-13T06:43:59.685Z,100715.59
2022-09-13T06:46:29.474Z,100724.78
2022-09-13T06:49:00.827Z,100716.22
2022-09-13T06:51:29.984Z,100701.63
2022-09-13T06:53:57.509Z,100700.16
2022-09-13T06:56:29.222Z,100696.72
2022-09-13T06:58:59.430Z,100695.13
2022-09-13T07:01:38.079Z,100708.88
2022-09-13T07:04:10.886Z,100695.00
2022-09-13T07:06:41.663Z,100693.91
2022-09-13T07:09:12.884Z,100708.41
2022-09-13T07:11:41.916Z,100695.06
2022-09-13T07:14:13.923Z,100704.94
2022-09-13T07:16:41.360Z,100694.09
2022-09-13T07:19:15.020Z,100700.97
2022-09-13T07:21:43.269Z,100700.59
2022-09-13T07:24:10.668Z,100696.25
2022-09-13T07:26:38.896Z,100689.28
2022-09-13T07:29:09.196Z,100706.56
2022-09-13T07:31:40.040Z,100699.03
2022-09-13T07:34:12.694Z,100710.50
2022-09-13T07:36:39.998Z,100702.53
2022-09-13T07:39:12.116Z,100689.34
2022-09-13T07:41:42.068Z,100686.75
2022-09-13T07:44:14.447Z,100693.09
2022-09-13T07:46:43.718Z,100689.03
2022-09-13T07:49:18.183Z,100698.78
2022-09-13T07:51:45.827Z,100704.56
2022-09-13T07:54:17.615Z,100697.16
2022-09-13T07:56:45.523Z,100706.38
2022-09-13T07:59:15.133Z,100704.16
2022-09-13T08:01:49.111Z,100710.22
2022-09-13T08:04:19.808Z,100712.75
2022-09-13T08:06:47.738Z,100721.63
2022-09-13T08:09:16.053Z,100719.38
2022-09-13T08:11:46.159Z,100719.69
2022-09-13T08:14:16.248Z,100714.50
2022-09-13T08:16:43.635Z,100718.81
2022-09-13T08:19:14.590Z,100718.19
2022-09-13T08:21:42.731Z,100722.75
2022-09-13T08:24:17.789Z,100724.13
2022-09-13T08:26:46.053Z,100718.19
2022-09-13T08:29:16.643Z,100717.91
2022-09-13T08:31:44.170Z,100722.00
2022-09-13T08:34:14.531Z,100714.72
2022-09-13T08:36:42.469Z,100724.31
2022-09-13T08:39:13.429Z,100728.13
2022-09-13T08:41:42.004Z,100724.66
2022-09-13T08:44:29.635Z,100728.34
2022-09-13T08:47:09.898Z,100719.38
2022-09-13T08:49:46.135Z,100727.25
2022-09-13T08:52:33.454Z,100732.22
2022-09-13T08:55:08.395Z,100738.16
2022-09-13T08:57:53.222Z,100736.63
2022-09-13T09:00:52.824Z,100733.41
2022-09-13T09:03:32.800Z,100728.50
2022-09-13T09:06:00.074Z,100735.59
2022-09-13T09:08:44.567Z,100733.44
2022-09-13T09:11:19.770Z,100721.63
2022-09-13T09:14:02.683Z,100726.16
2022-09-13T09:16:37.709Z,100730.44
2022-09-13T09:19:19.609Z,100731.69
2022-09-13T09:21:50.581Z,100731.66
2022-09-13T09:24:21.906Z,100726.91
2022-09-13T09:26:49.656Z,100730.28
2022-09-13T09:29:25.792Z,100724.78
2022-09-13T09:32:10.253Z,100731.25
2022-09-13T09:35:11.071Z,100732.66
2022-09-13T09:37:40.981Z,100736.13
2022-09-13T09:40:13.132Z,100740.16
2022-09-13T09:42:45.930Z,100729.66
2022-09-13T09:45:34.854Z,100730.19
2022-09-13T09:48:09.408Z,100720.75
2022-09-13T09:50:44.047Z,100728.03
2022-09-13T09:53:19.586Z,100731.41
2022-09-13T09:56:00.557Z,100722.66
2022-09-13T09:58:43.485Z,100723.81
2022-09-13T10:01:29.329Z,100723.72
2022-09-13T10:04:08.563Z,100722.97
2022-09-13T10:06:38.529Z,100717.50
2022-09-13T10:09:14.840Z,100715.16
2022-09-13T10:11:49.246Z,100706.84
2022-09-13T10:14:38.102Z,100698.78
2022-09-13T10:17:21.324Z,100704.97
2022-09-13T10:19:56.437Z,100699.00
2022-09-13T10:22:24.673Z,100696.25
2022-09-13T10:24:53.138Z,100705.25
2022-09-13T10:27:34.652Z,100706.84
2022-09-13T10:30:05.621Z,100704.59
2022-09-13T10:32:33.919Z,100694.28
2022-09-13T10:35:09.138Z,100686.44
2022-09-13T10:37:37.502Z,100683.00
2022-09-13T10:40:17.839Z,100683.88
2022-09-13T10:42:57.707Z,100679.75
2022-09-13T10:45:27.762Z,100685.00
2022-09-13T10:48:03.660Z,100686.97
2022-09-13T10:50:32.169Z,100683.50
2022-09-13T10:53:00.784Z,100669.16
2022-09-13T10:55:42.583Z,100674.19
2022-09-13T10:58:09.872Z,100664.00
2022-09-13T11:01:21.930Z,100663.53
2022-09-13T11:04:11.194Z,100666.38
2022-09-13T11:07:01.531Z,100654.81
2022-09-13T11:10:10.984Z,100656.00
2022-09-13T11:12:45.659Z,100652.09
2022-09-13T11:15:34.947Z,100637.53
2022-09-13T11:18:14.494Z,100647.00
2022-09-13T11:20:51.103Z,100645.97
2022-09-13T11:23:40.212Z,100646.75
2022-09-13T11:26:29.997Z,100643.25
2022-09-13T11:29:16.215Z,100642.47
2022-09-13T11:32:38.152Z,100649.03
2022-09-13T11:35:05.314Z,100652.72
2022-09-13T11:37:41.467Z,100649.63
2022-09-13T11:40:27.043Z,100647.91
2022-09-13T11:43:18.254Z,100656.56
2022-09-13T11:46:00.525Z,100647.00
2022-09-13T11:48:39.407Z,100653.13
2022-09-13T11:51:12.950Z,100652.38
2022-09-13T11:53:43.520Z,100639.22
2022-09-13T11:56:23.081Z,100642.22
2022-09-13T11:58:53.829Z,100635.94
2022-09-13T12:01:28.062Z,100640.78
2022-09-13T12:04:05.294Z,100627.78
2022-09-13T12:06:39.378Z,100628.91
2022-09-13T12:09:31.862Z,100618.91
2022-09-13T12:12:06.525Z,100623.97
2022-09-13T12:14:52.558Z,100621.22
2022-09-13T12:17:25.566Z,100614.69
2022-09-13T12:19:56.030Z,100598.56
2022-09-13T12:22:32.830Z,100593.94
2022-09-13T12:25:06.090Z,100597.03
2022-09-13T12:27:48.803Z,100598.44
2022-09-13T12:30:19.309Z,100597.22
2022-09-13T12:32:48.150Z,100596.03
2022-09-13T12:35:31.677Z,100592.50
2022-09-13T12:38:50.198Z,100595.44
2022-09-13T12:41:31.005Z,100597.19
2022-09-13T12:44:33.669Z,100593.13
2022-09-13T12:47:13.432Z,100593.72
2022-09-13T12:50:40.080Z,100589.84
2022-09-13T12:53:17.037Z,100580.59
2022-09-13T12:55:59.438Z,100582.59
2022-09-13T12:59:09.868Z,100585.47
2022-09-13T13:01:38.268Z,100584.53
2022-09-13T13:04:20.688Z,100584.38
2022-09-13T13:06:55.101Z,100577.19
2022-09-13T13:09:28.592Z,100584.84
2022-09-13T13:11:58.543Z,100577.66
2022-09-13T13:14:39.440Z,100579.84
2022-09-13T13:17:34.365Z,100575.00
2022-09-13T13:20:47.150Z,100569.22
2022-09-13T13:23:29.041Z,100574.38
2022-09-13T13:26:10.446Z,100572.03
2022-09-13T13:28:43.963Z,100567.97
2022-09-13T13:31:31.288Z,100560.94
2022-09-13T13:34:01.989Z,100570.00
2022-09-13T13:36:29.376Z,100561.22
2022-09-13T13:38:57.150Z,100556.72
2022-09-13T13:41:33.662Z,100547.78
2022-09-13T13:44:02.498Z,100556.09
2022-09-13T13:46:32.134Z,100563.28
2022-09-13T13:49:30.532Z,100551.44
2022-09-13T13:52:14.190Z,100556.06
2022-09-13T13:54:53.560Z,100567.50
2022-09-13T13:57:21.066Z,100567.84
2022-09-13T13:59:54.291Z,100560.41
2022-09-13T14:02:31.018Z,100561.81
2022-09-13T14:05:22.067Z,100567.63
2022-09-13T14:11:17.359Z,100565.41
2022-09-13T14:14:02.658Z,100562.91
2022-09-13T14:16:49.157Z,100564.75
2022-09-13T14:19:44.217Z,100551.22
2022-09-13T14:22:25.450Z,100560.59
2022-09-13T14:24:54.833Z,100555.28
2022-09-13T14:27:29.434Z,100556.53
2022-09-13T14:30:00.588Z,100561.19
2022-09-13T14:32:37.185Z,100562.25
2022-09-13T14:35:27.548Z,100550.75
2022-09-13T14:37:56.894Z,100555.53
2022-09-13T14:40:26.901Z,100551.72
2022-09-13T14:42:56.495Z,100545.38
2022-09-13T14:45:30.161Z,100545.13
2022-09-13T14:48:09.337Z,100541.41
2022-09-13T14:50:48.389Z,100540.50
2022-09-13T14:53:22.883Z,100532.03
2022-09-13T14:55:55.283Z,100531.09
2022-09-13T14:58:39.760Z,100530.44
2022-09-13T15:01:11.478Z,100538.28
2022-09-13T15:03:45.389Z,100528.16
2022-09-13T15:06:28.764Z,100532.22
2022-09-13T15:09:26.529Z,100526.75
2022-09-13T15:11:53.977Z,100531.13
2022-09-13T15:14:24.139Z,100530.84
2022-09-13T15:17:02.952Z,100527.56
2022-09-13T15:19:36.460Z,100527.06
2022-09-13T15:22:14.669Z,100531.22
2022-09-13T15:25:02.134Z,100524.31
2022-09-13T15:27:30.540Z,100526.00
2022-09-13T15:30:01.279Z,100520.56
2022-09-13T15:32:43.733Z,100522.19
2022-09-13T15:35:23.435Z,100516.78
2022-09-13T15:38:30.101Z,100520.66
2022-09-13T15:41:01.423Z,100530.31
2022-09-13T15:43:30.939Z,100528.97
2022-09-13T15:45:59.214Z,100529.25
2022-09-13T15:48:32.518Z,100531.50
2022-09-13T15:51:14.256Z,100537.69
2022-09-13T15:53:44.288Z,100522.13
2022-09-13T15:56:20.262Z,100530.19
2022-09-13T15:58:48.254Z,100521.84
2022-09-13T16:01:17.235Z,100530.13
2022-09-13T16:03:46.090Z,100524.41
2022-09-13T16:06:13.926Z,100519.47
2022-09-13T16:08:41.199Z,100521.50
2022-09-13T16:11:08.471Z,100528.19
2022-09-13T16:13:36.536Z,100515.75
2022-09-13T16:16:05.130Z,100519.25
2022-09-13T16:18:32.782Z,100525.75
2022-09-13T16:21:04.951Z,100513.31
2022-09-13T16:23:32.235Z,100506.03
2022-09-13T16:26:00.291Z,100518.13
2022-09-13T16:28:28.090Z,100518.59
2022-09-13T16:30:55.361Z,100513.75
2022-09-13T16:33:22.832Z,100513.31
2022-09-13T16:35:50.203Z,100515.75
2022-09-13T16:38:18.176Z,100508.19
2022-09-13T16:40:45.565Z,100509.97
2022-09-13T16:43:13.615Z,100515.69
2022-09-13T16:45:41.984Z,100523.50
2022-09-13T16:48:09.400Z,100520.47
2022-09-13T16:50:42.383Z,100522.81
2022-09-13T16:53:09.733Z,100526.16
2022-09-13T16:55:37.036Z,100523.00
2022-09-13T16:58:04.240Z,100523.28
2022-09-13T17:00:31.586Z,100522.84
2022-09-13T17:02:59.131Z,100531.97
2022-09-13T17:05:26.381Z,100537.09
2022-09-13T17:07:53.667Z,100529.13
2022-09-13T17:10:21.511Z,100529.22
2022-09-13T17:12:49.235Z,100534.28
2022-09-13T17:15:16.540Z,100539.88
2022-09-13T17:17:44.139Z,100538.22
2022-09-13T17:20:13.285Z,100542.66
2022-09-13T17:22:41.070Z,100542.84
2022-09-13T17:25:09.372Z,100527.81
2022-09-13T17:27:36.866Z,100537.78
2022-09-13T17:30:05.253Z,100548.16
2022-09-13T17:32:32.654Z,100544.97
2022-09-13T17:34:59.883Z,100542.78
2022-09-13T17:37:27.364Z,100536.69
2022-09-13T17:39:54.660Z,100541.94
2022-09-13T17:42:23.562Z,100541.81
2022-09-13T17:44:51.036Z,100545.19
2022-09-13T17:47:18.318Z,100554.25
2022-09-13T17:49:47.100Z,100553.03
2022-09-13T17:52:14.423Z,100557.06
2022-09-13T17:54:41.640Z,100563.09
2022-09-13T17:57:11.793Z,100560.72
2022-09-13T17:59:39.091Z,100559.41
2022-09-13T18:02:06.992Z,100558.88
2022-09-13T18:04:34.295Z,100567.03
2022-09-13T18:07:01.601Z,100567.44
2022-09-13T18:09:29.091Z,100576.69
2022-09-13T18:11:56.453Z,100576.69
2022-09-13T18:14:24.360Z,100569.63
2022-09-13T18:16:55.634Z,100571.31
2022-09-13T18:19:39.497Z,100578.69
2022-09-13T18:22:10.998Z,100572.25
2022-09-13T18:24:39.895Z,100577.34
2022-09-13T18:27:07.364Z,100567.88
2022-09-13T18:29:34.684Z,100572.28
2022-09-13T18:32:02.443Z,100572.97
2022-09-13T18:34:29.696Z,100577.75
2022-09-13T18:36:56.937Z,100572.25
2022-09-13T18:39:24.241Z,100586.97
2022-09-13T18:41:51.446Z,100576.75
2022-09-13T18:44:21.588Z,100583.28
2022-09-13T18:46:50.712Z,100589.06
2022-09-13T18:49:18.395Z,100593.91
2022-09-13T18:51:45.751Z,100595.28
2022-09-13T18:54:16.105Z,100596.41
2022-09-13T18:56:44.675Z,100593.47
2022-09-13T18:59:12.166Z,100591.75
2022-09-13T19:01:42.110Z,100607.06
2022-09-13T19:04:16.024Z,100611.38
2022-09-13T19:06:48.555Z,100608.41
2022-09-13T19:09:17.845Z,100604.53
2022-09-13T19:11:48.181Z,100600.47
2022-09-13T19:14:16.064Z,100611.19
2022-09-13T19:16:44.771Z,100618.81
2022-09-13T19:19:12.198Z,100619.88
2022-09-13T19:21:39.949Z,100619.88
2022-09-13T19:24:10.927Z,100617.50
2022-09-13T19:26:42.436Z,100621.69
2022-09-13T19:29:14.925Z,100621.94
2022-09-13T19:31:44.255Z,100627.56
2022-09-13T19:34:12.246Z,100635.03
2022-09-13T19:36:39.881Z,100643.38
2022-09-13T19:39:08.148Z,100639.06
2022-09-13T19:41:37.720Z,100637.91
2022-09-13T19:44:05.523Z,100640.28
2022-09-13T19:46:37.380Z,100642.28
2022-09-13T19:49:05.533Z,100647.00
2022-09-13T19:51:35.708Z,100647.78
2022-09-13T19:54:04.938Z,100643.00
2022-09-13T19:56:34.779Z,100639.44
2022-09-13T19:59:03.022Z,100647.13
2022-09-13T20:01:34.121Z,100636.88
2022-09-13T20:04:04.526Z,100631.06
2022-09-13T20:06:44.497Z,100641.84
2022-09-13T20:09:13.998Z,100630.47
2022-09-13T20:11:45.345Z,100642.53
2022-09-13T20:14:15.040Z,100635.03
2022-09-13T20:16:43.472Z,100641.63
2022-09-13T20:22:10.073Z,100647.44
2022-09-13T20:24:37.417Z,100645.88
2022-09-13T20:27:07.588Z,100640.16
2022-09-13T20:29:34.913Z,100648.50
2022-09-13T20:32:02.635Z,100643.09
2022-09-13T20:34:30.054Z,100644.00
2022-09-13T20:36:57.317Z,100643.91
2022-09-13T20:39:24.564Z,100635.56
2022-09-13T20:41:52.138Z,100641.22
2022-09-13T20:44:19.445Z,100638.91
2022-09-13T20:46:47.276Z,100643.53
2022-09-13T20:49:14.560Z,100634.13
2022-09-13T20:51:41.914Z,100640.69
2022-09-13T20:54:12.336Z,100640.75
2022-09-13T20:56:40.390Z,100645.97
2022-09-13T20:59:07.710Z,100647.22
2022-09-13T21:01:35.283Z,100644.72
2022-09-13T21:04:03.620Z,100647.06
2022-09-13T21:06:37.338Z,100644.31
2022-09-13T21:09:07.410Z,100639.91
2022-09-13T21:11:36.504Z,100643.09
2022-09-13T21:14:06.780Z,100642.69
2022-09-13T21:16:36.905Z,100642.78
2022-09-13T21:19:04.601Z,100648.19
2022-09-13T21:21:35.639Z,100646.25
2022-09-13T21:24:04.747Z,100641.94
2022-09-13T21:26:33.127Z,100641.91
2022-09-13T21:29:00.817Z,100644.72
2022-09-13T21:31:30.608Z,100639.63
2022-09-13T21:34:28.552Z,100649.19
2022-09-13T21:36:59.326Z,100642.59
2022-09-13T21:39:26.763Z,100647.69
2022-09-13T21:41:54.029Z,100652.00
2022-09-13T21:44:21.362Z,100648.31
2022-09-13T21:46:48.743Z,100644.78
2022-09-13T21:49:16.472Z,100639.75
2022-09-13T21:51:48.530Z,100658.97
2022-09-13T21:54:18.385Z,100649.47
2022-09-13T21:56:51.414Z,100625.97
2022-09-13T21:59:19.997Z,100630.31
2022-09-13T22:01:51.440Z,100629.53
2022-09-13T22:04:22.302Z,100637.53
2022-09-13T22:06:53.879Z,100622.97
2022-09-13T22:09:24.634Z,100629.59
2022-09-13T22:11:51.987Z,100610.41
2022-09-13T22:14:24.457Z,100615.22
2022-09-13T22:16:53.077Z,100606.22
2022-09-13T22:19:28.291Z,100610.63
2022-09-13T22:21:59.341Z,100596.34
2022-09-13T22:24:29.915Z,100607.44
2022-09-13T22:26:59.093Z,100626.56
2022-09-13T22:29:26.989Z,100619.91
2022-09-13T22:31:54.514Z,100612.41
2022-09-13T22:34:24.457Z,100618.72
2022-09-13T22:36:54.823Z,100607.56
2022-09-13T22:39:22.502Z,100607.69
2022-09-13T22:41:50.059Z,100603.69
2022-09-13T22:44:17.693Z,100601.25
2022-09-13T22:46:45.992Z,100607.84
2022-09-13T22:49:15.622Z,100607.56
2022-09-13T22:51:45.178Z,100600.81
2022-09-13T22:54:14.644Z,100601.88
2022-09-13T22:56:42.453Z,100596.97
2022-09-13T22:59:14.443Z,100588.69
2022-09-13T23:01:42.185Z,100586.31
2022-09-13T23:04:11.201Z,100588.03
2022-09-13T23:06:39.248Z,100585.28
2022-09-13T23:09:08.726Z,100590.88
2022-09-13T23:11:39.965Z,100593.66
2022-09-13T23:14:12.894Z,100583.78
2022-09-13T23:16:46.190Z,100587.72
2022-09-13T23:19:14.839Z,100591.78
2022-09-13T23:21:43.096Z,100593.06
2022-09-13T23:24:13.735Z,100599.13
2022-09-13T23:26:42.091Z,100591.59
2022-09-13T23:29:18.722Z,100608.19
2022-09-13T23:31:47.309Z,100605.81
2022-09-13T23:34:15.878Z,100600.66
2022-09-13T23:36:44.781Z,100603.81
2022-09-13T23:39:17.949Z,100605.81
2022-09-13T23:41:47.264Z,100600.72
2022-09-13T23:44:15.168Z,100606.59
2022-09-13T23:46:42.723Z,100607.47
2022-09-13T23:49:10.199Z,100608.03
2022-09-13T23:51:37.563Z,100606.09
2022-09-13T23:54:05.109Z,100598.16
2022-09-13T23:56:33.536Z,100605.28
2022-09-13T23:59:03.636Z,100601.78
